Santa Isabel, Brazil
Current Conditions -  °F | °C
As of 7:22 PM on Saturday 25 Oct 2014 (Local Time) from SBGR Reporting Station
Haze Haze  
Wind Chill: 72°   Ceiling: 3300
Heat Index: 72°   Visibility: 1.8mi
Dew Point: 66°   Wind: 6mph
Humidity: 83%   Direction: 150°SSE
Pressure: 30"   Gusts: NA
Location:  23.32°S, 46.22°W
Report Text: SBGR 252122Z 15005KT 3000 BR BKN033 BKN083 22/19 Q1016
Loading
Personal Weather Stations






























Interactive Weather Map
Tropical Storm Tracking
New forecast layout! Learn more

10-Day Weather Forecast

Advertisements
Track Severe Weather on mobile